Time;durP1;ratioP1;P1;durP2;ratioP2;P2;SDS_P1;SDS_P2;PMS_P1;PMS_P2;Temp;Humidity;BMP_temperature;BMP_pressure;BME280_temperature;BME280_humidity;BME280_pressure;Samples;Min_cycle;Max_cycle;Signal;HPM_P1;HPM_P2
2022/03/28 00:02:17;;;;;;;1999.90;999.90;;;6.40;99.90;;;;;;5036186;28;20924;-69
2022/03/28 00:04:45;;;;;;;1999.90;999.90;;;6.40;99.90;;;;;;5028194;28;20447;-72
2022/03/28 00:07:12;;;;;;;1999.90;999.90;;;6.50;99.90;;;;;;5035939;28;20902;-72
2022/03/28 00:09:39;;;;;;;1999.90;999.90;;;6.50;99.90;;;;;;5028861;28;20947;-71
2022/03/28 00:12:06;;;;;;;1999.90;999.90;;;6.50;99.90;;;;;;5037656;28;20486;-72
2022/03/28 00:14:33;;;;;;;1999.90;999.90;;;6.40;99.90;;;;;;5028978;28;20463;-72
2022/03/28 00:16:59;;;;;;;1999.90;999.90;;;6.40;99.90;;;;;;5035214;28;20872;-72
2022/03/28 00:19:26;;;;;;;1999.90;999.90;;;6.50;99.90;;;;;;5035944;28;20931;-71
2022/03/28 00:21:56;;;;;;;1999.90;999.90;;;6.50;99.90;;;;;;5035495;28;20483;-75
2022/03/28 00:24:23;;;;;;;1999.90;999.90;;;6.50;99.90;;;;;;5036441;28;20451;-74
2022/03/28 00:26:49;;;;;;;1999.90;999.90;;;6.40;99.90;;;;;;5027450;28;20456;-72
2022/03/28 00:29:16;;;;;;;1999.90;999.90;;;6.30;99.90;;;;;;5035560;28;20451;-72
2022/03/28 00:31:43;;;;;;;1999.90;999.90;;;6.20;99.90;;;;;;5035448;28;20504;-72
2022/03/28 00:34:09;;;;;;;1999.90;999.90;;;6.20;99.90;;;;;;5036078;28;20505;-72
2022/03/28 00:36:36;;;;;;;1999.90;999.90;;;6.10;99.90;;;;;;5028465;28;20468;-73
2022/03/28 00:39:04;;;;;;;1999.90;999.90;;;6.00;99.90;;;;;;5027500;28;20475;-72
2022/03/28 00:41:31;;;;;;;1999.90;999.90;;;5.90;99.90;;;;;;5035638;28;20474;-72
2022/03/28 00:43:59;;;;;;;1999.90;999.90;;;5.80;99.90;;;;;;5035810;28;20834;-72
2022/03/28 00:46:27;;;;;;;1999.90;999.90;;;5.70;99.90;;;;;;5031543;28;20463;-72
2022/03/28 00:48:54;;;;;;;1999.90;999.90;;;5.70;99.90;;;;;;5034586;28;20552;-72
2022/03/28 00:51:23;;;;;;;1999.90;999.90;;;5.60;99.90;;;;;;5029089;28;20435;-73
2022/03/28 00:53:51;;;;;;;1999.90;999.90;;;5.50;99.90;;;;;;5035342;28;20505;-72
2022/03/28 00:56:20;;;;;;;1999.90;999.90;;;5.50;99.90;;;;;;5028681;28;20511;-71
2022/03/28 00:58:47;;;;;;;1999.90;999.90;;;5.30;99.90;;;;;;5037820;28;20463;-72
2022/03/28 01:01:14;;;;;;;1999.90;999.90;;;5.40;99.90;;;;;;5038146;28;20492;-72
2022/03/28 01:03:41;;;;;;;1999.90;999.90;;;5.30;99.90;;;;;;5036069;28;20455;-72
2022/03/28 01:06:08;;;;;;;1999.90;999.90;;;5.30;99.90;;;;;;5027346;28;20458;-71
2022/03/28 01:08:35;;;;;;;1999.90;999.90;;;5.10;99.90;;;;;;5034299;28;20475;-72
2022/03/28 01:11:06;;;;;;;1999.90;999.90;;;5.10;99.90;;;;;;5026502;28;20450;-72
2022/03/28 01:13:35;;;;;;;1999.90;999.90;;;5.10;99.90;;;;;;5034237;28;20501;-71
2022/03/28 01:16:03;;;;;;;1999.90;999.90;;;5.20;99.90;;;;;;5034558;28;21200;-72
2022/03/28 01:18:28;;;;;;;1999.90;999.90;;;5.30;99.90;;;;;;5034373;28;20498;-72
2022/03/28 01:20:57;;;;;;;1999.90;999.90;;;5.30;99.90;;;;;;5035054;28;20458;-72
2022/03/28 01:23:24;;;;;;;1999.90;999.90;;;5.30;99.90;;;;;;5030276;28;20622;-72
2022/03/28 01:25:52;;;;;;;1999.90;999.90;;;5.30;99.90;;;;;;5032231;28;20447;-72
2022/03/28 01:28:20;;;;;;;1999.90;999.90;;;5.30;99.90;;;;;;5035412;28;20479;-72
2022/03/28 01:30:47;;;;;;;1999.90;999.90;;;5.30;99.90;;;;;;5035547;28;20443;-71
2022/03/28 01:33:15;;;;;;;1999.90;999.90;;;5.20;99.90;;;;;;5032434;28;20460;-67
2022/03/28 01:35:43;;;;;;;1999.90;999.90;;;5.20;99.90;;;;;;5030639;28;20459;-72
2022/03/28 01:38:13;;;;;;;1999.90;999.90;;;5.20;99.90;;;;;;5030982;28;20491;-71
2022/03/28 01:40:41;;;;;;;1999.90;999.90;;;5.20;99.90;;;;;;5029592;28;21007;-72
2022/03/28 01:43:09;;;;;;;1999.90;999.90;;;5.10;99.90;;;;;;5026789;28;20542;-72
2022/03/28 01:45:36;;;;;;;1999.90;999.90;;;5.00;99.90;;;;;;5034785;28;20458;-72
2022/03/28 01:48:03;;;;;;;1999.90;999.90;;;5.00;99.90;;;;;;5035429;28;20475;-72
2022/03/28 01:50:30;;;;;;;1999.90;999.90;;;4.90;99.90;;;;;;5030417;28;20502;-72
2022/03/28 01:52:56;;;;;;;1999.90;999.90;;;4.80;99.90;;;;;;5024831;28;20443;-74
2022/03/28 01:55:25;;;;;;;1999.90;999.90;;;4.80;99.90;;;;;;5034484;28;20463;-72
2022/03/28 01:57:52;;;;;;;1999.90;999.90;;;4.90;99.90;;;;;;5035438;28;20746;-72
2022/03/28 02:00:20;;;;;;;1999.90;999.90;;;4.80;99.90;;;;;;5034819;28;21007;-72
2022/03/28 02:02:48;;;;;;;1999.90;999.90;;;4.80;99.90;;;;;;5027701;28;21025;-71
2022/03/28 02:05:15;;;;;;;1999.90;999.90;;;4.70;99.90;;;;;;5035921;28;20466;-72
2022/03/28 02:07:44;;;;;;;1999.90;999.90;;;4.80;99.90;;;;;;5035878;28;20490;-71
2022/03/28 02:10:13;;;;;;;1999.90;999.90;;;4.80;99.90;;;;;;5035176;28;20964;-72
2022/03/28 02:12:41;;;;;;;1999.90;999.90;;;4.70;99.90;;;;;;5027669;28;20452;-70
2022/03/28 02:15:09;;;;;;;1999.90;999.90;;;4.80;99.90;;;;;;5035018;28;20451;-71
2022/03/28 02:17:36;;;;;;;1999.90;999.90;;;4.70;99.90;;;;;;5035978;28;20510;-71
2022/03/28 02:20:05;;;;;;;1999.90;999.90;;;4.60;99.90;;;;;;5033701;28;20883;-71
2022/03/28 02:22:32;;;;;;;1999.90;999.90;;;4.70;99.90;;;;;;5029879;28;20487;-71
2022/03/28 02:24:59;;;;;;;1999.90;999.90;;;4.60;99.90;;;;;;5037087;28;20451;-72
2022/03/28 02:27:25;;;;;;;1999.90;999.90;;;4.80;99.90;;;;;;5035442;28;20471;-73
2022/03/28 02:29:53;;;;;;;1999.90;999.90;;;4.50;99.90;;;;;;5034542;28;20611;-71
2022/03/28 02:32:20;;;;;;;1999.90;999.90;;;4.50;99.90;;;;;;5035554;28;20452;-72
2022/03/28 02:34:47;;;;;;;1999.90;999.90;;;4.50;99.90;;;;;;5027698;28;20466;-72
2022/03/28 02:37:14;;;;;;;1999.90;999.90;;;4.50;99.90;;;;;;5034449;28;20463;-72
2022/03/28 02:39:40;;;;;;;1999.90;999.90;;;4.50;99.90;;;;;;5036669;28;20458;-71
2022/03/28 02:42:09;;;;;;;1999.90;999.90;;;4.30;99.90;;;;;;5035830;28;20479;-72
2022/03/28 02:44:35;;;;;;;1999.90;999.90;;;4.20;99.90;;;;;;5036367;28;20493;-71
2022/03/28 02:47:05;;;;;;;1999.90;999.90;;;4.00;99.90;;;;;;5035086;28;20946;-71
2022/03/28 02:49:32;;;;;;;1999.90;999.90;;;4.00;99.90;;;;;;5026814;28;20458;-72
2022/03/28 02:51:58;;;;;;;1999.90;999.90;;;4.00;99.90;;;;;;5034858;28;20451;-71
2022/03/28 02:54:25;;;;;;;1999.90;999.90;;;4.00;99.90;;;;;;5036147;28;20457;-72
2022/03/28 02:56:52;;;;;;;1999.90;999.90;;;4.00;99.90;;;;;;5036147;28;20446;-72
2022/03/28 02:59:18;;;;;;;1999.90;999.90;;;4.20;99.90;;;;;;5030905;28;20528;-72
2022/03/28 03:01:46;;;;;;;1999.90;999.90;;;4.20;99.90;;;;;;5030871;28;20483;-72
2022/03/28 03:04:14;;;;;;;1999.90;999.90;;;4.40;99.90;;;;;;5034770;28;20943;-72
2022/03/28 03:06:41;;;;;;;1999.90;999.90;;;4.50;99.90;;;;;;5033503;28;20459;-71
2022/03/28 03:09:08;;;;;;;1999.90;999.90;;;4.70;99.90;;;;;;5051062;23;20496;-68
2022/03/28 03:11:34;;;;;;;1999.90;999.90;;;4.70;99.90;;;;;;5030825;28;20447;-68
2022/03/28 03:14:02;;;;;;;1999.90;999.90;;;4.70;99.90;;;;;;5031754;28;20870;-68
2022/03/28 03:16:29;;;;;;;1999.90;999.90;;;4.60;99.90;;;;;;5031920;28;20880;-68
2022/03/28 03:18:56;;;;;;;1999.90;999.90;;;4.60;99.90;;;;;;5030832;28;20466;-68
2022/03/28 03:21:24;;;;;;;1999.90;999.90;;;4.50;99.90;;;;;;5031375;28;20939;-68
2022/03/28 03:23:50;;;;;;;1999.90;999.90;;;4.50;99.90;;;;;;5031461;28;20491;-68
2022/03/28 03:26:17;;;;;;;1999.90;999.90;;;4.60;99.90;;;;;;5031394;28;20726;-68
2022/03/28 03:28:44;;;;;;;1999.90;999.90;;;4.60;99.90;;;;;;5023793;28;20480;-68
2022/03/28 03:31:10;;;;;;;1999.90;999.90;;;4.60;99.90;;;;;;5030868;28;20935;-68
2022/03/28 03:33:37;;;;;;;1999.90;999.90;;;4.60;99.90;;;;;;5031719;28;20447;-68
2022/03/28 03:36:04;;;;;;;1999.90;999.90;;;4.60;99.90;;;;;;5031342;28;20490;-68
2022/03/28 03:38:32;;;;;;;1999.90;999.90;;;4.70;99.90;;;;;;5030257;28;20521;-69
2022/03/28 03:40:58;;;;;;;1999.90;999.90;;;5.10;99.90;;;;;;5031748;28;20497;-68
2022/03/28 03:43:25;;;;;;;1999.90;999.90;;;4.40;99.90;;;;;;5031695;28;20485;-68
2022/03/28 03:45:52;;;;;;;1999.90;999.90;;;4.40;99.90;;;;;;5031449;28;20461;-68
2022/03/28 03:48:19;;;;;;;1999.90;999.90;;;4.40;99.90;;;;;;5031492;28;20463;-68
2022/03/28 03:50:46;;;;;;;1999.90;999.90;;;4.30;99.90;;;;;;5031239;28;20451;-68
2022/03/28 03:53:13;;;;;;;1999.90;999.90;;;4.30;99.90;;;;;;5030925;28;20525;-68
2022/03/28 03:55:41;;;;;;;1999.90;999.90;;;4.30;99.90;;;;;;5031083;28;20517;-67
2022/03/28 03:58:07;;;;;;;1999.90;999.90;;;4.20;99.90;;;;;;5031977;28;20544;-68
2022/03/28 04:00:34;;;;;;;1999.90;999.90;;;4.20;99.90;;;;;;5031014;28;20447;-68
2022/03/28 04:03:01;;;;;;;1999.90;999.90;;;4.30;99.90;;;;;;5031558;28;20536;-68
2022/03/28 04:05:27;;;;;;;1999.90;999.90;;;4.40;99.90;;;;;;5030997;28;20477;-68
2022/03/28 04:07:54;;;;;;;1999.90;999.90;;;4.60;99.90;;;;;;5030444;28;20870;-66
2022/03/28 04:10:22;;;;;;;1999.90;999.90;;;4.30;99.90;;;;;;5027254;28;20482;-68
2022/03/28 04:12:49;;;;;;;1999.90;999.90;;;4.30;99.90;;;;;;5031569;28;20443;-66
2022/03/28 04:15:16;;;;;;;1999.90;999.90;;;4.40;99.90;;;;;;5030619;28;20869;-67
2022/03/28 04:17:44;;;;;;;1999.90;999.90;;;4.40;99.90;;;;;;5031658;28;20467;-68
2022/03/28 04:20:14;;;;;;;1999.90;999.90;;;4.50;99.90;;;;;;5030641;28;20455;-67
2022/03/28 04:22:41;;;;;;;1999.90;999.90;;;4.50;99.90;;;;;;5031334;28;20486;-67
2022/03/28 04:25:09;;;;;;;1999.90;999.90;;;4.40;99.90;;;;;;5031187;28;20451;-68
2022/03/28 04:27:36;;;;;;;1999.90;999.90;;;4.40;99.90;;;;;;5030591;28;20471;-67
2022/03/28 04:30:05;;;;;;;1999.90;999.90;;;4.30;99.90;;;;;;5024744;28;20447;-67
2022/03/28 04:32:32;;;;;;;1999.90;999.90;;;4.40;99.90;;;;;;5034644;28;20457;-68
2022/03/28 04:34:59;;;;;;;1999.90;999.90;;;4.40;99.90;;;;;;5042178;28;20439;-68
2022/03/28 04:37:25;;;;;;;1999.90;999.90;;;4.50;99.90;;;;;;5048848;28;20451;-68
2022/03/28 04:39:52;;;;;;;1999.90;999.90;;;4.50;99.90;;;;;;5049981;28;20509;-68
2022/03/28 04:42:18;;;;;;;1999.90;999.90;;;4.50;99.90;;;;;;5050267;28;20487;-68
2022/03/28 04:44:45;;;;;;;1999.90;999.90;;;4.50;99.90;;;;;;5050623;28;20478;-68
2022/03/28 04:47:13;;;;;;;1999.90;999.90;;;4.50;99.90;;;;;;5052135;28;20443;-68
2022/03/28 04:49:40;;;;;;;1999.90;999.90;;;4.40;99.90;;;;;;5036494;28;20796;-68
2022/03/28 04:52:06;;;;;;;1999.90;999.90;;;4.30;99.90;;;;;;5034870;28;20493;-66
2022/03/28 04:54:33;;;;;;;1999.90;999.90;;;4.30;99.90;;;;;;5034909;28;20452;-68
2022/03/28 04:57:00;;;;;;;1999.90;999.90;;;4.40;99.90;;;;;;5034614;28;20454;-68
2022/03/28 04:59:28;;;;;;;1999.90;999.90;;;4.30;99.90;;;;;;5033910;28;20982;-68
2022/03/28 05:01:55;;;;;;;1999.90;999.90;;;4.70;99.90;;;;;;5034002;28;20457;-67
2022/03/28 05:04:23;;;;;;;1999.90;999.90;;;4.30;99.90;;;;;;5033914;28;20490;-67
2022/03/28 05:06:49;;;;;;;1999.90;999.90;;;4.30;99.90;;;;;;5034427;28;20447;-67
2022/03/28 05:09:16;;;;;;;1999.90;999.90;;;4.30;99.90;;;;;;5025438;28;20991;-67
2022/03/28 05:11:43;;;;;;;1999.90;999.90;;;4.40;99.90;;;;;;5033715;28;20478;-68
2022/03/28 05:14:09;;;;;;;1999.90;999.90;;;4.50;99.90;;;;;;5033618;28;20939;-67
2022/03/28 05:16:36;;;;;;;1999.90;999.90;;;4.50;99.90;;;;;;5034272;28;20450;-68
2022/03/28 05:19:03;;;;;;;1999.90;999.90;;;4.60;99.90;;;;;;5033046;28;20463;-68
2022/03/28 05:21:31;;;;;;;1999.90;999.90;;;4.40;99.90;;;;;;5033922;28;20470;-68
2022/03/28 05:23:57;;;;;;;1999.90;999.90;;;4.50;99.90;;;;;;5033465;28;20580;-68
2022/03/28 05:26:26;;;;;;;1999.90;999.90;;;4.60;99.90;;;;;;5033835;28;20509;-67
2022/03/28 05:28:53;;;;;;;1999.90;999.90;;;4.40;99.90;;;;;;5025039;28;20480;-67
2022/03/28 05:31:19;;;;;;;1999.90;999.90;;;4.40;99.90;;;;;;5033698;28;20474;-68
2022/03/28 05:33:46;;;;;;;1999.90;999.90;;;4.40;99.90;;;;;;5033482;28;20452;-67
2022/03/28 05:36:14;;;;;;;1999.90;999.90;;;4.40;99.90;;;;;;5033647;28;20459;-67
2022/03/28 05:38:43;;;;;;;1999.90;999.90;;;4.50;99.90;;;;;;5031443;28;20562;-67
2022/03/28 05:41:10;;;;;;;1999.90;999.90;;;4.90;99.90;;;;;;5032272;28;20439;-67
2022/03/28 05:43:37;;;;;;;1999.90;999.90;;;4.80;99.90;;;;;;5032158;28;20528;-67
2022/03/28 05:46:04;;;;;;;1999.90;999.90;;;4.80;99.90;;;;;;5032335;28;21015;-67
2022/03/28 05:48:31;;;;;;;1999.90;999.90;;;4.90;99.90;;;;;;5024233;28;20479;-67
2022/03/28 05:50:58;;;;;;;1999.90;999.90;;;5.40;99.90;;;;;;5032287;28;20474;-67
2022/03/28 05:53:25;;;;;;;1999.90;999.90;;;5.10;99.90;;;;;;5033471;28;20443;-67
2022/03/28 05:55:53;;;;;;;1999.90;999.90;;;5.30;99.90;;;;;;5033170;28;20460;-67
2022/03/28 05:58:19;;;;;;;1999.90;999.90;;;5.30;99.90;;;;;;5033527;28;20972;-67
2022/03/28 06:00:46;;;;;;;1999.90;999.90;;;5.50;99.90;;;;;;5032799;28;20501;-67
2022/03/28 06:03:12;;;;;;;1999.90;999.90;;;5.60;99.90;;;;;;5032748;28;20478;-65
2022/03/28 06:05:39;;;;;;;1999.90;999.90;;;5.90;99.90;;;;;;5032723;28;20447;-66
2022/03/28 06:08:07;;;;;;;1999.90;999.90;;;5.80;99.90;;;;;;5032381;28;20498;-65
2022/03/28 06:10:34;;;;;;;1999.90;999.90;;;6.00;99.90;;;;;;5032756;28;20458;-65
2022/03/28 06:13:03;;;;;;;1999.90;999.90;;;6.10;99.90;;;;;;5032792;28;20505;-65
2022/03/28 06:15:36;;;;;;;1999.90;999.90;;;6.20;99.90;;;;;;5032767;28;20955;-65
2022/03/28 06:18:04;;;;;;;1999.90;999.90;;;6.30;99.90;;;;;;5032521;28;20471;-66
2022/03/28 06:20:31;;;;;;;1999.90;999.90;;;6.40;99.90;;;;;;5032634;28;20790;-65
2022/03/28 06:22:57;;;;;;;1999.90;999.90;;;6.60;99.90;;;;;;5032962;28;20482;-65
2022/03/28 06:25:24;;;;;;;1999.90;999.90;;;6.90;99.90;;;;;;5032429;28;20512;-67
2022/03/28 06:27:51;;;;;;;1999.90;999.90;;;6.90;99.90;;;;;;5032675;28;20471;-67
2022/03/28 06:30:19;;;;;;;1999.90;999.90;;;7.00;99.90;;;;;;5026970;28;20468;-67
2022/03/28 06:32:45;;;;;;;1999.90;999.90;;;7.20;99.90;;;;;;5029986;28;20459;-68
2022/03/28 06:35:12;;;;;;;1999.90;999.90;;;7.50;99.90;;;;;;5031805;28;20451;-67
2022/03/28 06:37:38;;;;;;;1999.90;999.90;;;7.60;99.90;;;;;;5031343;28;21026;-68
2022/03/28 06:40:08;;;;;;;1999.90;999.90;;;7.80;99.90;;;;;;5032261;28;20447;-66
2022/03/28 06:42:35;;;;;;;1999.90;999.90;;;7.80;99.90;;;;;;5032030;28;20451;-68
2022/03/28 06:45:01;;;;;;;1999.90;999.90;;;8.00;99.90;;;;;;5031697;28;20447;-70
2022/03/28 06:47:29;;;;;;;1999.90;999.90;;;8.20;99.90;;;;;;5031493;28;20869;-70
2022/03/28 06:49:56;;;;;;;1999.90;999.90;;;8.70;99.90;;;;;;5031847;28;20869;-68
2022/03/28 06:52:23;;;;;;;1999.90;999.90;;;8.90;99.90;;;;;;5031479;28;20459;-68
2022/03/28 06:54:49;;;;;;;1999.90;999.90;;;9.20;99.90;;;;;;5032899;28;20443;-68
2022/03/28 06:57:16;;;;;;;1999.90;999.90;;;9.40;99.90;;;;;;5032619;28;20536;-67
2022/03/28 06:59:43;;;;;;;1999.90;999.90;;;9.60;99.90;;;;;;5032049;28;20501;-69
2022/03/28 07:02:10;;;;;;;1999.90;999.90;;;9.90;99.90;;;;;;5031372;28;20448;-68
2022/03/28 07:04:38;;;;;;;1999.90;999.90;;;10.10;99.90;;;;;;5031805;28;20560;-68
2022/03/28 07:07:04;;;;;;;1999.90;999.90;;;10.50;99.90;;;;;;5031958;28;20447;-67
2022/03/28 07:09:31;;;;;;;1999.90;999.90;;;10.60;99.90;;;;;;5031229;28;20483;-68
2022/03/28 07:11:59;;;;;;;1999.90;999.90;;;10.80;99.90;;;;;;5031225;28;20474;-68
2022/03/28 07:14:25;;;;;;;1999.90;999.90;;;11.30;99.90;;;;;;5030406;28;20467;-68
2022/03/28 07:16:52;;;;;;;1999.90;999.90;;;11.60;99.90;;;;;;5027497;28;20456;-66
2022/03/28 07:19:19;;;;;;;1999.90;999.90;;;11.80;99.90;;;;;;5031459;28;20473;-66
2022/03/28 07:21:47;;;;;;;1999.90;999.90;;;12.00;99.90;;;;;;5029901;28;20951;-67
2022/03/28 07:24:15;;;;;;;1999.90;999.90;;;12.10;99.90;;;;;;5031399;28;21073;-68
2022/03/28 07:26:44;;;;;;;1999.90;999.90;;;12.40;99.90;;;;;;5031712;28;20545;-68
2022/03/28 07:29:11;;;;;;;1999.90;999.90;;;12.50;99.90;;;;;;5031154;28;20483;-68
2022/03/28 07:31:39;;;;;;;1999.90;999.90;;;12.50;99.90;;;;;;5021636;28;20872;-67
2022/03/28 07:36:52;;;;;;;1999.90;999.90;;;12.40;99.90;;;;;;5030475;28;20528;-67
2022/03/28 07:39:20;;;;;;;1999.90;999.90;;;12.60;99.90;;;;;;5031359;28;21069;-67
2022/03/28 07:41:47;;;;;;;1999.90;999.90;;;12.50;99.90;;;;;;5031517;28;20529;-67
2022/03/28 07:44:14;;;;;;;1999.90;999.90;;;12.70;99.90;;;;;;5031652;28;20471;-68
2022/03/28 07:46:41;;;;;;;1999.90;999.90;;;12.60;99.90;;;;;;5031200;28;20443;-68
2022/03/28 07:49:08;;;;;;;1999.90;999.90;;;12.90;99.90;;;;;;5031168;28;20475;-67
2022/03/28 07:51:34;;;;;;;1999.90;999.90;;;12.80;99.90;;;;;;5030786;28;20826;-67
2022/03/28 07:54:03;;;;;;;1999.90;999.90;;;12.90;99.90;;;;;;5031304;28;20490;-68
2022/03/28 07:56:31;;;;;;;1999.90;999.90;;;12.80;99.90;;;;;;5029603;28;20455;-68
2022/03/28 07:58:57;;;;;;;1999.90;999.90;;;12.80;99.90;;;;;;5031561;28;20975;-67
2022/03/28 08:01:24;;;;;;;1999.90;999.90;;;12.90;99.90;;;;;;5031214;28;20447;-67
2022/03/28 08:03:51;;;;;;;1999.90;999.90;;;13.00;99.90;;;;;;5032660;28;20994;-67
2022/03/28 08:06:17;;;;;;;1999.90;999.90;;;12.80;99.90;;;;;;5035591;28;20443;-67
2022/03/28 08:08:44;;;;;;;1999.90;999.90;;;12.80;99.90;;;;;;5034753;28;21057;-69
2022/03/28 08:11:13;;;;;;;1999.90;999.90;;;12.70;99.90;;;;;;5035122;28;20451;-66
2022/03/28 08:13:39;;;;;;;1999.90;999.90;;;12.80;99.90;;;;;;5035173;28;20447;-67
2022/03/28 08:16:06;;;;;;;1999.90;999.90;;;13.00;99.90;;;;;;5034715;28;20870;-67
2022/03/28 08:18:36;;;;;;;1999.90;999.90;;;13.00;99.90;;;;;;5034953;28;20479;-67
2022/03/28 08:21:02;;;;;;;1999.90;999.90;;;12.80;99.90;;;;;;5035102;28;20478;-67
2022/03/28 08:23:29;;;;;;;1999.90;999.90;;;12.80;99.90;;;;;;5034714;28;20529;-65
2022/03/28 08:25:55;;;;;;;1999.90;999.90;;;12.90;99.90;;;;;;5035274;28;20501;-67
2022/03/28 08:28:23;;;;;;;1999.90;999.90;;;12.90;99.90;;;;;;5034788;28;20544;-67
2022/03/28 08:30:50;;;;;;;1999.90;999.90;;;13.00;99.90;;;;;;5034443;28;20458;-67
2022/03/28 08:33:17;;;;;;;1999.90;999.90;;;13.20;99.90;;;;;;5034752;28;20459;-65
2022/03/28 08:35:43;;;;;;;1999.90;999.90;;;13.40;99.90;;;;;;5034767;28;20479;-65
2022/03/28 08:38:10;;;;;;;1999.90;999.90;;;13.40;99.90;;;;;;5034452;28;20513;-66
2022/03/28 08:40:37;;;;;;;1999.90;999.90;;;13.40;99.90;;;;;;5034585;28;20450;-65
2022/03/28 08:43:04;;;;;;;1999.90;999.90;;;13.20;99.90;;;;;;5034710;28;20496;-68
2022/03/28 08:45:32;;;;;;;1999.90;999.90;;;13.40;99.90;;;;;;5034122;28;20486;-68
2022/03/28 08:48:01;;;;;;;1999.90;999.90;;;13.70;99.90;;;;;;5034401;28;20475;-68
2022/03/28 08:50:27;;;;;;;1999.90;999.90;;;13.70;99.90;;;;;;5034140;28;20451;-68
2022/03/28 08:52:54;;;;;;;1999.90;999.90;;;13.80;99.90;;;;;;5034342;28;20451;-67
2022/03/28 08:55:22;;;;;;;1999.90;999.90;;;14.10;99.90;;;;;;5032957;28;20573;-68
2022/03/28 08:57:49;;;;;;;1999.90;999.90;;;14.20;99.90;;;;;;5020595;28;20471;-68
2022/03/28 09:00:16;;;;;;;1999.90;999.90;;;14.30;99.90;;;;;;5015495;28;20861;-69
2022/03/28 09:02:46;;;;;;;1999.90;999.90;;;14.30;99.90;;;;;;5028741;28;21173;-67
2022/03/28 09:05:13;;;;;;;1999.90;999.90;;;14.50;99.90;;;;;;5033884;28;20515;-68
2022/03/28 09:07:40;;;;;;;1999.90;999.90;;;14.50;99.90;;;;;;5033991;28;20479;-68
2022/03/28 09:10:09;;;;;;;1999.90;999.90;;;14.60;99.90;;;;;;5033896;23;20535;-67
2022/03/28 09:12:40;;;;;;;1999.90;999.90;;;14.70;99.90;;;;;;5010382;28;20464;-69
2022/03/28 09:15:09;;;;;;;1999.90;999.90;;;14.80;99.90;;;;;;5014167;28;20444;-70
2022/03/28 09:17:39;;;;;;;1999.90;999.90;;;14.70;99.90;;;;;;5014138;28;21027;-69
2022/03/28 09:20:08;;;;;;;1999.90;999.90;;;14.90;99.90;;;;;;5013655;28;20836;-70
2022/03/28 09:22:37;;;;;;;1999.90;999.90;;;14.90;99.90;;;;;;5013656;28;21240;-70
2022/03/28 09:25:06;;;;;;;1999.90;999.90;;;15.10;99.90;;;;;;5013712;28;20855;-69
2022/03/28 09:27:35;;;;;;;1999.90;999.90;;;15.30;99.90;;;;;;5014113;28;20456;-69
2022/03/28 09:30:05;;;;;;;1999.90;999.90;;;15.50;99.90;;;;;;5013976;28;20522;-69
2022/03/28 09:32:34;;;;;;;1999.90;999.90;;;15.50;99.90;;;;;;5013719;28;20818;-69
2022/03/28 09:35:21;;;;;;;1999.90;999.90;;;15.50;99.90;;;;;;5014331;28;20448;-68
2022/03/28 09:38:01;;;;;;;1999.90;999.90;;;15.30;99.90;;;;;;5014060;28;20534;-71
2022/03/28 09:40:33;;;;;;;1999.90;999.90;;;15.00;99.90;;;;;;5013538;28;20451;-69
2022/03/28 09:43:01;;;;;;;1999.90;999.90;;;15.10;99.90;;;;;;5008569;28;20519;-69
2022/03/28 09:45:31;;;;;;;1999.90;999.90;;;15.20;99.90;;;;;;5013121;28;20553;-69
2022/03/28 09:48:00;;;;;;;1999.90;999.90;;;15.20;99.90;;;;;;5013648;28;20460;-69
2022/03/28 09:50:30;;;;;;;1999.90;999.90;;;15.20;99.90;;;;;;5013757;28;20464;-69
2022/03/28 09:52:57;;;;;;;1999.90;999.90;;;15.10;99.90;;;;;;5013230;28;20456;-69
2022/03/28 09:55:24;;;;;;;1999.90;999.90;;;15.30;99.90;;;;;;5014956;28;20444;-69
2022/03/28 09:57:50;;;;;;;1999.90;999.90;;;15.10;99.90;;;;;;5013728;28;20479;-69
2022/03/28 10:00:19;;;;;;;1999.90;999.90;;;15.10;99.90;;;;;;5013038;28;20468;-69
2022/03/28 10:02:46;;;;;;;1999.90;999.90;;;15.30;99.90;;;;;;5012817;28;20957;-69
2022/03/28 10:05:14;;;;;;;1999.90;999.90;;;15.40;99.90;;;;;;5013535;28;20476;-69
2022/03/28 10:07:42;;;;;;;1999.90;999.90;;;15.50;99.90;;;;;;5013025;28;20463;-69
2022/03/28 10:10:09;;;;;;;1999.90;999.90;;;15.90;99.90;;;;;;5012401;28;20480;-68
2022/03/28 10:12:36;;;;;;;1999.90;999.90;;;16.10;99.90;;;;;;5013201;28;20448;-69
2022/03/28 10:15:04;;;;;;;1999.90;999.90;;;16.00;99.90;;;;;;5013810;28;20452;-69
2022/03/28 10:17:32;;;;;;;1999.90;999.90;;;15.70;99.90;;;;;;5013436;28;20547;-68
2022/03/28 10:20:00;;;;;;;1999.90;999.90;;;15.60;99.90;;;;;;5012516;28;20475;-69
2022/03/28 10:22:29;;;;;;;1999.90;999.90;;;15.80;99.90;;;;;;5014441;28;20506;-68
2022/03/28 10:25:02;;;;;;;1999.90;999.90;;;15.90;99.90;;;;;;5014990;28;20546;-69
2022/03/28 10:27:29;;;;;;;1999.90;999.90;;;15.90;99.90;;;;;;5015951;28;20527;-70
2022/03/28 10:30:11;;;;;;;1999.90;999.90;;;15.90;99.90;;;;;;5009254;28;20996;-69
2022/03/28 10:32:38;;;;;;;1999.90;999.90;;;15.90;99.90;;;;;;5013311;28;20432;-69
2022/03/28 10:35:07;;;;;;;1999.90;999.90;;;16.00;99.90;;;;;;5012085;28;20523;-68
2022/03/28 10:37:36;;;;;;;1999.90;999.90;;;16.00;99.90;;;;;;5012531;28;20459;-69
2022/03/28 10:40:25;;;;;;;1999.90;999.90;;;16.00;99.90;;;;;;5012328;28;20476;-69
2022/03/28 10:42:56;;;;;;;1999.90;999.90;;;16.00;99.90;;;;;;5012048;28;20952;-69
2022/03/28 10:45:32;;;;;;;1999.90;999.90;;;16.20;99.90;;;;;;5012580;28;20484;-69
2022/03/28 10:47:59;;;;;;;1999.90;999.90;;;16.20;99.90;;;;;;5011372;28;20456;-69
2022/03/28 10:50:29;;;;;;;1999.90;999.90;;;16.00;99.90;;;;;;5012580;28;20468;-69
2022/03/28 10:53:11;;;;;;;1999.90;999.90;;;15.70;99.90;;;;;;5012916;28;20460;-69
2022/03/28 10:55:44;;;;;;;1999.90;999.90;;;15.90;99.90;;;;;;5011054;28;20456;-69
2022/03/28 10:58:13;;;;;;;1999.90;999.90;;;15.80;99.90;;;;;;5011938;28;20448;-69
2022/03/28 11:01:06;;;;;;;1999.90;999.90;;;15.70;99.90;;;;;;5011902;28;20507;-69
2022/03/28 11:03:37;;;;;;;1999.90;999.90;;;15.80;99.90;;;;;;4992941;28;20434;-69
2022/03/28 11:06:04;;;;;;;1999.90;999.90;;;15.80;99.90;;;;;;4999844;28;20503;-69
2022/03/28 11:08:32;;;;;;;1999.90;999.90;;;15.60;99.90;;;;;;5011769;28;20476;-68
2022/03/28 11:11:21;;;;;;;1999.90;999.90;;;15.80;99.90;;;;;;5011763;28;20444;-69
2022/03/28 11:14:04;;;;;;;1999.90;999.90;;;16.10;99.90;;;;;;5011766;28;20440;-68
2022/03/28 11:16:42;;;;;;;1999.90;999.90;;;16.30;99.90;;;;;;4992554;28;20498;-69
2022/03/28 11:19:29;;;;;;;1999.90;999.90;;;16.50;99.90;;;;;;5003904;28;20471;-68
2022/03/28 11:21:58;;;;;;;1999.90;999.90;;;16.40;99.90;;;;;;5012036;28;20451;-69
2022/03/28 11:24:46;;;;;;;1999.90;999.90;;;16.40;99.90;;;;;;5011822;28;21273;-68
2022/03/28 11:27:16;;;;;;;1999.90;999.90;;;16.50;99.90;;;;;;5011667;28;20437;-68
2022/03/28 11:29:44;;;;;;;1999.90;999.90;;;16.30;99.90;;;;;;5011994;28;20464;-69
2022/03/28 11:32:13;;;;;;;1999.90;999.90;;;16.30;99.90;;;;;;5011327;28;20568;-69
2022/03/28 11:34:39;;;;;;;1999.90;999.90;;;16.60;99.90;;;;;;5011973;28;20459;-68
2022/03/28 11:37:06;;;;;;;1999.90;999.90;;;16.60;99.90;;;;;;5011283;28;20506;-69
2022/03/28 11:39:52;;;;;;;1999.90;999.90;;;16.50;99.90;;;;;;5014182;28;20522;-69
2022/03/28 11:42:22;;;;;;;1999.90;999.90;;;16.30;99.90;;;;;;5015996;28;20462;-68
2022/03/28 11:44:49;;;;;;;1999.90;999.90;;;16.30;99.90;;;;;;5015825;28;20507;-69
2022/03/28 11:47:18;;;;;;;1999.90;999.90;;;16.30;99.90;;;;;;5015932;28;20460;-69
2022/03/28 11:49:55;;;;;;;1999.90;999.90;;;16.30;99.90;;;;;;5015202;28;20476;-69
2022/03/28 11:52:23;;;;;;;1999.90;999.90;;;16.50;99.90;;;;;;4995929;28;21046;-69
2022/03/28 11:54:50;;;;;;;1999.90;999.90;;;16.90;99.90;;;;;;5001054;28;20440;-68
2022/03/28 12:00:15;;;;;;;1999.90;999.90;;;16.70;99.90;;;;;;5014705;28;20493;-68
2022/03/28 12:02:50;;;;;;;1999.90;999.90;;;16.70;99.90;;;;;;5015617;28;20824;-69
2022/03/28 12:05:30;;;;;;;1999.90;999.90;;;16.80;99.90;;;;;;5015035;28;20532;-69
2022/03/28 12:07:57;;;;;;;1999.90;999.90;;;17.00;99.90;;;;;;5014942;28;20444;-69
2022/03/28 12:10:26;;;;;;;1999.90;999.90;;;17.10;99.90;;;;;;5014584;28;20996;-68
2022/03/28 12:12:55;;;;;;;1999.90;999.90;;;17.50;99.90;;;;;;5015462;28;20872;-69
2022/03/28 12:15:26;;;;;;;1999.90;999.90;;;17.40;99.90;;;;;;5015474;28;20494;-69